createdAt,value
2024-03-28T00:01:28.600Z,97973.82
2024-03-28T00:03:59.779Z,97967.08
2024-03-28T00:06:30.955Z,97965.45
2024-03-28T00:09:03.849Z,97963.52
2024-03-28T00:11:35.264Z,97959.21
2024-03-28T00:14:07.596Z,97959.65
2024-03-28T00:16:38.822Z,97953.52
2024-03-28T00:19:11.309Z,97954.84
2024-03-28T00:21:42.858Z,97954.30
2024-03-28T00:24:14.015Z,97954.16
2024-03-28T00:26:46.671Z,97952.67
2024-03-28T00:29:18.030Z,97952.55
2024-03-28T00:31:50.685Z,97954.09
2024-03-28T00:34:21.872Z,97946.27
2024-03-28T00:36:52.964Z,97945.18
2024-03-28T00:39:24.133Z,97941.34
2024-03-28T00:41:55.330Z,97939.42
2024-03-28T00:44:26.532Z,97937.06
2024-03-28T00:46:57.618Z,97936.31
2024-03-28T00:49:28.742Z,97934.58
2024-03-28T00:51:59.815Z,97931.19
2024-03-28T00:54:30.928Z,97928.23
2024-03-28T00:57:01.991Z,97930.61
2024-03-28T00:59:32.921Z,97927.26
2024-03-28T01:02:04.111Z,97923.73
2024-03-28T01:04:35.062Z,97922.13
2024-03-28T01:07:06.473Z,97921.22
2024-03-28T01:09:41.119Z,97919.98
2024-03-28T01:12:13.937Z,97923.92
2024-03-28T01:14:45.335Z,97922.08
2024-03-28T01:17:16.759Z,97917.67
2024-03-28T01:19:49.071Z,97918.17
2024-03-28T01:22:20.522Z,97917.27
2024-03-28T01:24:53.383Z,97910.86
2024-03-28T01:27:24.638Z,97904.90
2024-03-28T01:29:57.171Z,97904.13
2024-03-28T01:32:28.062Z,97901.48
2024-03-28T01:34:59.157Z,97896.61
2024-03-28T01:37:30.134Z,97897.71
2024-03-28T01:40:02.138Z,97896.89
2024-03-28T01:42:33.390Z,97895.14
2024-03-28T01:45:05.456Z,97889.69
2024-03-28T01:50:13.871Z,97883.20
2024-03-28T01:52:45.027Z,97876.08
2024-03-28T01:55:16.360Z,97876.66
2024-03-28T01:57:48.823Z,97877.79
2024-03-28T02:00:22.072Z,97872.45
2024-03-28T02:02:53.236Z,97872.79
2024-03-28T02:05:24.830Z,97879.02
2024-03-28T02:07:56.026Z,97878.58
2024-03-28T02:10:28.272Z,97872.20
2024-03-28T02:12:59.191Z,97874.20
2024-03-28T02:15:30.273Z,97871.80
2024-03-28T02:18:01.155Z,97874.73
2024-03-28T02:20:32.174Z,97867.95
2024-03-28T02:23:03.258Z,97870.77
2024-03-28T02:25:34.464Z,97867.71
2024-03-28T02:28:05.613Z,97864.98
2024-03-28T02:30:36.625Z,97858.73
2024-03-28T02:33:08.228Z,97856.70
2024-03-28T02:35:39.475Z,97853.48
2024-03-28T02:38:10.387Z,97851.77
2024-03-28T02:40:41.562Z,97858.17
2024-03-28T02:43:12.638Z,97856.70
2024-03-28T02:45:43.970Z,97851.95
2024-03-28T02:48:15.171Z,97848.80
2024-03-28T02:50:46.271Z,97849.19
2024-03-28T02:53:17.552Z,97844.46
2024-03-28T02:55:53.875Z,97840.75
2024-03-28T02:58:25.412Z,97840.45
2024-03-28T03:00:57.739Z,97836.64
2024-03-28T03:03:28.735Z,97829.38
2024-03-28T03:06:00.149Z,97827.70
2024-03-28T03:08:31.115Z,97823.96
2024-03-28T03:11:02.073Z,97824.03
2024-03-28T03:13:33.125Z,97821.73
2024-03-28T03:16:05.128Z,97816.31
2024-03-28T03:18:36.251Z,97815.13
2024-03-28T03:21:10.104Z,97809.68
2024-03-28T03:23:49.517Z,97803.72
2024-03-28T03:26:24.118Z,97803.02
2024-03-28T03:29:23.992Z,97804.00
2024-03-28T03:32:12.765Z,97811.77
2024-03-28T03:34:44.847Z,97806.87
2024-03-28T03:37:18.354Z,97798.77
2024-03-28T03:39:54.573Z,97799.39
2024-03-28T03:42:25.935Z,97796.74
2024-03-28T03:44:57.142Z,97792.31
2024-03-28T03:47:28.230Z,97795.27
2024-03-28T03:49:59.258Z,97791.33
2024-03-28T03:52:30.385Z,97793.16
2024-03-28T03:55:01.398Z,97790.08
2024-03-28T03:57:32.663Z,97779.41
2024-03-28T04:00:05.240Z,97772.29
2024-03-28T04:02:36.228Z,97769.74
2024-03-28T04:05:08.243Z,97767.81
2024-03-28T04:07:39.182Z,97760.96
2024-03-28T04:10:11.541Z,97757.29
2024-03-28T04:12:42.643Z,97759.88
2024-03-28T04:15:13.773Z,97759.68
2024-03-28T04:17:45.340Z,97754.77
2024-03-28T04:20:16.679Z,97753.92
2024-03-28T04:22:47.746Z,97747.95
2024-03-28T04:25:20.620Z,97743.23
2024-03-28T04:27:51.820Z,97743.39
2024-03-28T04:30:30.581Z,97740.67
2024-03-28T04:33:01.845Z,97731.15
2024-03-28T04:35:33.002Z,97721.44
2024-03-28T04:38:04.037Z,97708.27
2024-03-28T04:40:35.699Z,97701.28
2024-03-28T04:43:07.037Z,97702.87
2024-03-28T04:45:38.189Z,97696.31
2024-03-28T04:48:10.241Z,97697.27
2024-03-28T04:50:43.836Z,97705.42
2024-03-28T04:53:15.155Z,97700.00
2024-03-28T04:55:46.428Z,97701.54
2024-03-28T04:58:17.461Z,97730.33
2024-03-28T05:00:48.377Z,97743.98
2024-03-28T05:03:19.233Z,97742.16
2024-03-28T05:05:51.471Z,97739.25
2024-03-28T05:08:23.034Z,97738.09
2024-03-28T05:10:54.274Z,97729.73
2024-03-28T05:13:25.432Z,97727.91
2024-03-28T05:15:56.465Z,97715.05
2024-03-28T05:18:27.496Z,97710.40
2024-03-28T05:20:58.634Z,97707.65
2024-03-28T05:23:29.570Z,97708.04
2024-03-28T05:26:00.721Z,97705.84
2024-03-28T05:28:32.208Z,97704.30
2024-03-28T05:31:03.832Z,97697.91
2024-03-28T05:33:35.050Z,97695.95
2024-03-28T05:36:07.170Z,97696.14
2024-03-28T05:38:38.187Z,97695.91
2024-03-28T05:41:09.312Z,97691.64
2024-03-28T05:43:40.618Z,97687.12
2024-03-28T05:46:12.024Z,97687.90
2024-03-28T05:48:43.045Z,97688.23
2024-03-28T05:51:16.962Z,97680.67
2024-03-28T05:53:50.001Z,97675.14
2024-03-28T05:56:21.187Z,97671.03
2024-03-28T05:58:52.383Z,97670.48
2024-03-28T06:01:23.519Z,97666.15
2024-03-28T06:03:55.547Z,97659.21
2024-03-28T06:06:27.042Z,97651.51
2024-03-28T06:08:58.419Z,97657.96
2024-03-28T06:11:29.677Z,97660.02
2024-03-28T06:14:11.629Z,97655.00
2024-03-28T06:16:42.963Z,97647.96
2024-03-28T06:19:14.557Z,97646.66
2024-03-28T06:21:49.075Z,97648.83
2024-03-28T06:24:20.117Z,97656.06
2024-03-28T06:26:54.064Z,97659.29
2024-03-28T06:29:25.950Z,97664.23
2024-03-28T06:31:57.197Z,97671.47
2024-03-28T06:34:28.524Z,97671.89
2024-03-28T06:36:59.769Z,97674.73
2024-03-28T06:39:31.808Z,97681.58
2024-03-28T06:42:04.192Z,97685.00
2024-03-28T06:44:35.438Z,97688.19
2024-03-28T06:47:06.910Z,97683.00
2024-03-28T06:49:38.121Z,97684.56
2024-03-28T06:52:11.202Z,97684.77
2024-03-28T06:54:43.010Z,97685.23
2024-03-28T06:57:14.372Z,97683.89
2024-03-28T06:59:45.621Z,97686.99
2024-03-28T07:02:17.049Z,97686.67
2024-03-28T07:04:48.768Z,97689.36
2024-03-28T07:07:20.443Z,97690.30
2024-03-28T07:09:52.668Z,97685.39
2024-03-28T07:12:26.356Z,97686.61
2024-03-28T07:14:58.965Z,97692.67
2024-03-28T07:17:32.121Z,97693.84
2024-03-28T07:20:04.606Z,97695.38
2024-03-28T07:22:37.211Z,97698.38
2024-03-28T07:25:10.080Z,97698.50
2024-03-28T07:27:41.396Z,97701.73
2024-03-28T07:30:14.922Z,97701.89
2024-03-28T07:32:49.872Z,97700.67
2024-03-28T07:35:21.359Z,97698.23
2024-03-28T07:37:52.903Z,97695.08
2024-03-28T07:40:24.368Z,97695.34
2024-03-28T07:42:55.622Z,97697.05
2024-03-28T07:45:27.017Z,97692.62
2024-03-28T07:47:58.482Z,97697.86
2024-03-28T07:50:29.853Z,97697.71
2024-03-28T07:53:01.175Z,97694.73
2024-03-28T07:55:32.505Z,97694.91
2024-03-28T07:58:03.915Z,97692.90
2024-03-28T08:00:35.867Z,97696.33
2024-03-28T08:03:07.686Z,97698.57
2024-03-28T08:05:39.243Z,97695.81
2024-03-28T08:08:11.567Z,97698.38
2024-03-28T08:10:42.983Z,97700.48
2024-03-28T08:13:14.552Z,97700.54
2024-03-28T08:15:45.913Z,97704.27
2024-03-28T08:18:21.487Z,97705.40
2024-03-28T08:20:53.228Z,97705.17
2024-03-28T08:23:24.934Z,97706.45
2024-03-28T08:25:58.062Z,97710.73
2024-03-28T08:28:30.692Z,97709.02
2024-03-28T08:31:07.667Z,97700.03
2024-03-28T08:33:40.148Z,97692.08
2024-03-28T08:36:15.975Z,97686.96
2024-03-28T08:38:47.885Z,97686.68
2024-03-28T08:41:19.068Z,97689.35
2024-03-28T08:43:51.640Z,97685.75
2024-03-28T08:46:23.133Z,97689.83
2024-03-28T08:48:55.676Z,97689.39
2024-03-28T08:51:26.887Z,97677.66
2024-03-28T08:54:27.175Z,97675.14
2024-03-28T08:56:59.558Z,97671.46
2024-03-28T08:59:30.832Z,97669.11
2024-03-28T09:02:02.121Z,97668.64
2024-03-28T09:04:33.506Z,97660.09
2024-03-28T09:07:05.003Z,97661.65
2024-03-28T09:09:37.309Z,97664.91
2024-03-28T09:12:09.719Z,97672.70
2024-03-28T09:14:41.199Z,97665.73
2024-03-28T09:17:13.077Z,97659.53
2024-03-28T09:19:44.222Z,97657.02
2024-03-28T09:22:15.991Z,97655.85
2024-03-28T09:24:48.160Z,97656.35
2024-03-28T09:27:20.207Z,97645.87
2024-03-28T09:29:53.470Z,97650.95
2024-03-28T09:32:25.129Z,97654.48
2024-03-28T09:34:57.837Z,97647.14
2024-03-28T09:37:29.626Z,97650.64
2024-03-28T09:40:04.439Z,97655.84
2024-03-28T09:42:39.189Z,97664.52
2024-03-28T09:45:14.458Z,97668.42
2024-03-28T09:47:46.320Z,97674.39
2024-03-28T09:50:25.359Z,97677.18
2024-03-28T09:52:59.786Z,97678.38
2024-03-28T09:55:31.173Z,97687.21
2024-03-28T09:58:04.864Z,97692.12
2024-03-28T10:00:37.768Z,97693.33
2024-03-28T10:03:20.353Z,97686.90
2024-03-28T10:05:53.101Z,97686.95
2024-03-28T10:08:25.843Z,97683.67
2024-03-28T10:10:57.951Z,97690.00
2024-03-28T10:13:37.210Z,97691.17
2024-03-28T10:16:15.660Z,97693.88
2024-03-28T10:18:48.751Z,97688.05
2024-03-28T10:21:23.691Z,97689.17
2024-03-28T10:23:54.770Z,97688.48
2024-03-28T10:26:30.359Z,97682.91
2024-03-28T10:29:02.418Z,97687.27
2024-03-28T10:31:34.024Z,97682.20
2024-03-28T10:34:06.595Z,97674.45
2024-03-28T10:36:39.435Z,97672.34
2024-03-28T10:39:13.178Z,97678.13
2024-03-28T10:41:48.440Z,97682.34
2024-03-28T10:44:20.603Z,97683.56
2024-03-28T10:46:54.612Z,97692.50
2024-03-28T10:49:34.499Z,97699.00
2024-03-28T10:52:16.006Z,97700.39
2024-03-28T10:54:49.870Z,97695.21
2024-03-28T10:57:24.263Z,97686.14
2024-03-28T10:59:58.137Z,97685.00
2024-03-28T11:02:32.133Z,97692.33
2024-03-28T11:05:04.527Z,97699.28
2024-03-28T11:07:37.351Z,97702.91
2024-03-28T11:10:11.132Z,97704.77
2024-03-28T11:12:42.668Z,97704.13
2024-03-28T11:15:23.077Z,97703.71
2024-03-28T11:17:54.673Z,97706.53
2024-03-28T11:20:26.789Z,97705.78
2024-03-28T11:23:06.767Z,97704.58
2024-03-28T11:25:40.538Z,97710.56
2024-03-28T11:28:12.953Z,97714.75
2024-03-28T11:30:58.385Z,97715.09
2024-03-28T11:33:38.144Z,97714.95
2024-03-28T11:36:10.689Z,97713.69
2024-03-28T11:38:43.014Z,97709.47
2024-03-28T11:41:14.218Z,97706.69
2024-03-28T11:43:47.633Z,97706.33
2024-03-28T11:46:20.582Z,97706.08
2024-03-28T11:48:58.784Z,97703.25
2024-03-28T11:51:29.865Z,97701.41
2024-03-28T11:54:04.830Z,97700.09
2024-03-28T11:56:36.929Z,97702.57
2024-03-28T11:59:20.191Z,97712.73
2024-03-28T12:02:04.611Z,97715.20
2024-03-28T12:04:37.300Z,97716.50
2024-03-28T12:07:09.233Z,97715.98
2024-03-28T12:09:42.011Z,97719.40
2024-03-28T12:12:14.202Z,97722.17
2024-03-28T12:14:45.274Z,97721.02
2024-03-28T12:17:18.196Z,97721.73
2024-03-28T12:19:49.867Z,97722.80
2024-03-28T12:22:21.791Z,97715.62
2024-03-28T12:24:53.568Z,97716.15
2024-03-28T12:27:25.544Z,97712.59
2024-03-28T12:30:06.191Z,97707.60
2024-03-28T12:32:37.537Z,97706.55
2024-03-28T12:35:10.451Z,97704.23
2024-03-28T12:37:43.164Z,97703.86
2024-03-28T12:40:19.717Z,97710.27
2024-03-28T12:42:51.451Z,97712.13
2024-03-28T12:45:24.753Z,97714.20
2024-03-28T12:47:56.399Z,97708.38
2024-03-28T12:50:27.910Z,97705.33
2024-03-28T12:52:59.749Z,97700.65
2024-03-28T12:55:30.959Z,97703.08
2024-03-28T12:58:03.239Z,97702.20
2024-03-28T13:00:34.336Z,97705.83
2024-03-28T13:03:06.386Z,97712.12
2024-03-28T13:05:38.089Z,97713.42
2024-03-28T13:08:10.487Z,97718.28
2024-03-28T13:10:41.571Z,97721.25
2024-03-28T13:13:13.820Z,97723.31
2024-03-28T13:15:46.382Z,97725.15
2024-03-28T13:18:18.440Z,97723.68
2024-03-28T13:20:51.014Z,97727.17
2024-03-28T13:23:22.782Z,97732.40
2024-03-28T13:26:05.701Z,97739.52
2024-03-28T13:28:43.543Z,97741.06
2024-03-28T13:31:16.111Z,97744.96
2024-03-28T13:33:47.458Z,97748.81
2024-03-28T13:36:18.574Z,97756.23
2024-03-28T13:38:49.723Z,97760.21
2024-03-28T13:41:20.934Z,97766.69
2024-03-28T13:43:53.885Z,97772.41
2024-03-28T13:46:25.703Z,97778.63
2024-03-28T13:48:57.151Z,97792.74
2024-03-28T13:51:28.939Z,97801.41
2024-03-28T13:54:01.751Z,97813.04
2024-03-28T13:56:35.221Z,97817.61
2024-03-28T13:59:06.857Z,97822.65
2024-03-28T14:01:40.377Z,97820.89
2024-03-28T14:04:11.783Z,97829.16
2024-03-28T14:06:45.113Z,97841.02
2024-03-28T14:09:16.737Z,97848.95
2024-03-28T14:11:48.658Z,97859.46
2024-03-28T14:14:20.167Z,97857.43
2024-03-28T14:16:52.464Z,97860.85
2024-03-28T14:19:23.715Z,97866.30
2024-03-28T14:21:55.454Z,97873.35
2024-03-28T14:24:26.834Z,97878.88
2024-03-28T14:26:59.249Z,97880.80
2024-03-28T14:29:30.425Z,97883.82
2024-03-28T14:32:02.933Z,97887.80
2024-03-28T14:34:35.554Z,97896.98
2024-03-28T14:37:10.058Z,97898.30
2024-03-28T14:39:42.205Z,97895.41
2024-03-28T14:42:13.162Z,97898.27
2024-03-28T14:44:47.017Z,97904.98
2024-03-28T14:47:18.963Z,97912.80
2024-03-28T14:49:53.675Z,97926.05
2024-03-28T14:52:24.979Z,97927.65
2024-03-28T14:54:56.966Z,97931.40
2024-03-28T14:57:29.420Z,97932.13
2024-03-28T15:00:01.285Z,97935.73
2024-03-28T15:02:32.489Z,97941.90
2024-03-28T15:05:04.762Z,97943.10
2024-03-28T15:07:36.535Z,97948.22
2024-03-28T15:10:08.824Z,97951.20
2024-03-28T15:12:40.345Z,97949.66
2024-03-28T15:15:12.946Z,97951.67
2024-03-28T15:17:43.982Z,97950.31
2024-03-28T15:20:32.394Z,97949.30
2024-03-28T15:23:04.019Z,97949.86
2024-03-28T15:25:36.393Z,97957.70
2024-03-28T15:28:09.302Z,97953.71
2024-03-28T15:30:42.493Z,97950.29
2024-03-28T15:33:13.853Z,97955.86
2024-03-28T15:35:46.462Z,97954.45
2024-03-28T15:38:18.326Z,97960.77
2024-03-28T15:40:56.124Z,97962.86
2024-03-28T15:43:27.426Z,97966.04
2024-03-28T15:45:58.934Z,97966.42
2024-03-28T15:48:31.430Z,97967.61
2024-03-28T15:51:03.341Z,97964.80
2024-03-28T15:53:36.273Z,97956.17
2024-03-28T15:56:09.310Z,97954.06
2024-03-28T15:58:41.535Z,97956.79
2024-03-28T16:01:17.256Z,97958.16
2024-03-28T16:03:48.753Z,97957.77
2024-03-28T16:06:22.544Z,97959.16
2024-03-28T16:08:53.781Z,97970.21
2024-03-28T16:11:29.645Z,97964.91
2024-03-28T16:14:00.744Z,97965.29
2024-03-28T16:16:32.181Z,97967.28
2024-03-28T16:19:03.375Z,97971.40
2024-03-28T16:21:34.689Z,97976.89
2024-03-28T16:24:07.236Z,97986.46
2024-03-28T16:26:38.612Z,97989.55
2024-03-28T16:29:11.169Z,97987.06
2024-03-28T16:31:43.615Z,97989.16
2024-03-28T16:34:14.850Z,97988.65
2024-03-28T16:36:46.229Z,97995.54
2024-03-28T16:39:17.366Z,98002.00
2024-03-28T16:41:49.091Z,98012.24
2024-03-28T16:44:20.677Z,98015.54
2024-03-28T16:46:51.821Z,98017.60
2024-03-28T16:49:23.161Z,98022.19
2024-03-28T16:51:56.118Z,98026.06
2024-03-28T16:54:27.615Z,98030.39
2024-03-28T16:56:58.967Z,98035.65
2024-03-28T16:59:30.093Z,98044.16
2024-03-28T17:02:01.216Z,98046.38
2024-03-28T17:04:32.436Z,98047.67
2024-03-28T17:07:03.738Z,98052.96
2024-03-28T17:09:35.050Z,98067.54
2024-03-28T17:12:08.358Z,98075.27
2024-03-28T17:14:40.448Z,98079.58
2024-03-28T17:17:11.552Z,98088.20
2024-03-28T17:19:42.749Z,98092.30
2024-03-28T17:22:14.018Z,98096.52
2024-03-28T17:24:45.871Z,98098.77
2024-03-28T17:27:19.577Z,98100.92
2024-03-28T17:29:50.954Z,98097.16
2024-03-28T17:32:22.290Z,98105.28
2024-03-28T17:34:56.093Z,98103.45
2024-03-28T17:37:28.886Z,98104.91
2024-03-28T17:40:00.313Z,98110.48
2024-03-28T17:42:37.160Z,98115.60
2024-03-28T17:45:12.593Z,98118.58
2024-03-28T17:47:46.399Z,98119.98
2024-03-28T17:50:19.361Z,98129.06
2024-03-28T17:52:56.253Z,98126.43
2024-03-28T17:55:32.100Z,98132.09
2024-03-28T17:58:05.692Z,98134.44
2024-03-28T18:00:37.480Z,98138.59
2024-03-28T18:03:09.209Z,98143.16
2024-03-28T18:05:43.505Z,98148.33
2024-03-28T18:08:15.032Z,98150.86
2024-03-28T18:10:53.075Z,98154.58
2024-03-28T18:13:25.366Z,98155.98
2024-03-28T18:15:56.661Z,98159.94
2024-03-28T18:18:28.196Z,98162.00
2024-03-28T18:21:04.758Z,98160.17
2024-03-28T18:23:39.636Z,98160.82
2024-03-28T18:26:10.996Z,98163.79
2024-03-28T18:28:42.556Z,98166.54
2024-03-28T18:31:14.143Z,98165.69
2024-03-28T18:33:45.261Z,98168.06
2024-03-28T18:36:16.476Z,98171.98
2024-03-28T18:38:47.485Z,98171.58
2024-03-28T18:41:19.939Z,98171.31
2024-03-28T18:43:51.583Z,98170.86
2024-03-28T18:46:22.720Z,98173.40
2024-03-28T18:48:53.982Z,98173.00
2024-03-28T18:51:25.061Z,98174.96
2024-03-28T18:53:56.134Z,98173.60
2024-03-28T18:56:28.735Z,98176.21
2024-03-28T18:59:00.037Z,98176.45
2024-03-28T19:01:31.730Z,98169.51
2024-03-28T19:04:02.753Z,98171.56
2024-03-28T19:06:33.664Z,98173.73
2024-03-28T19:09:04.647Z,98174.17
2024-03-28T19:11:35.721Z,98174.27
2024-03-28T19:14:09.249Z,98176.58
2024-03-28T19:16:40.396Z,98175.86
2024-03-28T19:19:11.668Z,98180.42
2024-03-28T19:21:42.922Z,98181.06
2024-03-28T19:24:14.449Z,98184.40
2024-03-28T19:26:46.228Z,98187.95
2024-03-28T19:29:19.200Z,98186.83
2024-03-28T19:31:51.588Z,98192.70
2024-03-28T19:34:25.026Z,98191.38
2024-03-28T19:36:58.140Z,98190.39
2024-03-28T19:39:31.623Z,98189.80
2024-03-28T19:42:04.972Z,98186.77
2024-03-28T19:44:37.764Z,98191.99
2024-03-28T19:47:11.610Z,98194.60
2024-03-28T19:49:44.202Z,98199.92
2024-03-28T19:52:16.652Z,98199.24
2024-03-28T19:54:48.716Z,98200.72
2024-03-28T19:57:20.972Z,98202.96
2024-03-28T20:00:01.245Z,98204.61
2024-03-28T20:02:34.430Z,98203.16
2024-03-28T20:05:08.213Z,98208.37
2024-03-28T20:07:50.161Z,98200.23
2024-03-28T20:10:24.549Z,98205.92
2024-03-28T20:12:58.058Z,98205.86
2024-03-28T20:15:32.319Z,98202.70
2024-03-28T20:18:04.488Z,98207.53
2024-03-28T20:20:38.763Z,98210.14
2024-03-28T20:23:12.939Z,98213.52
2024-03-28T20:25:45.629Z,98206.23
2024-03-28T20:28:20.220Z,98211.39
2024-03-28T20:30:55.402Z,98213.27
2024-03-28T20:33:27.430Z,98219.82
2024-03-28T20:36:01.104Z,98219.81
2024-03-28T20:38:32.402Z,98220.75
2024-03-28T20:41:04.701Z,98219.21
2024-03-28T20:43:35.875Z,98213.44
2024-03-28T20:46:13.357Z,98214.20
2024-03-28T20:48:45.415Z,98215.02
2024-03-28T20:51:19.688Z,98220.98
2024-03-28T20:53:53.389Z,98223.77
2024-03-28T20:56:25.253Z,98227.85
2024-03-28T20:58:57.249Z,98227.33
2024-03-28T21:01:29.808Z,98231.38
2024-03-28T21:04:01.428Z,98228.61
2024-03-28T21:06:50.184Z,98220.56
2024-03-28T21:09:40.971Z,98221.87
2024-03-28T21:12:15.208Z,98228.56
2024-03-28T21:14:47.429Z,98230.30
2024-03-28T21:17:19.094Z,98234.98
2024-03-28T21:19:51.944Z,98233.71
2024-03-28T21:22:23.153Z,98236.77
2024-03-28T21:24:54.215Z,98233.27
2024-03-28T21:27:25.976Z,98233.61
2024-03-28T21:29:57.546Z,98234.06
2024-03-28T21:32:29.453Z,98233.95
2024-03-28T21:35:06.365Z,98226.83
2024-03-28T21:37:39.246Z,98233.32
2024-03-28T21:40:12.468Z,98237.63
2024-03-28T21:42:45.938Z,98233.19
2024-03-28T21:45:19.850Z,98235.66
2024-03-28T21:47:55.282Z,98237.91
2024-03-28T21:50:28.741Z,98242.23
2024-03-28T21:53:00.577Z,98252.10
2024-03-28T21:55:32.551Z,98256.75
2024-03-28T21:58:04.655Z,98263.46
2024-03-28T22:00:37.860Z,98276.39
2024-03-28T22:03:09.472Z,98281.67
2024-03-28T22:05:42.346Z,98289.34
2024-03-28T22:08:13.772Z,98293.06
2024-03-28T22:10:45.069Z,98289.61
2024-03-28T22:13:16.292Z,98293.70
2024-03-28T22:15:56.810Z,98296.94
2024-03-28T22:18:29.027Z,98294.81
2024-03-28T22:21:00.594Z,98297.04
2024-03-28T22:23:32.359Z,98295.65
2024-03-28T22:26:03.786Z,98293.48
2024-03-28T22:28:35.116Z,98294.42
2024-03-28T22:31:07.117Z,98294.05
2024-03-28T22:33:38.387Z,98297.02
2024-03-28T22:36:11.451Z,98305.45
2024-03-28T22:38:43.384Z,98308.53
2024-03-28T22:41:16.158Z,98315.95
2024-03-28T22:43:47.476Z,98319.70
2024-03-28T22:46:19.160Z,98326.91
2024-03-28T22:48:52.127Z,98334.88
2024-03-28T22:51:23.496Z,98337.99
2024-03-28T22:53:56.245Z,98343.02
2024-03-28T22:56:29.418Z,98347.90
2024-03-28T22:59:01.256Z,98353.20
2024-03-28T23:01:33.921Z,98359.95
2024-03-28T23:04:06.665Z,98367.42
2024-03-28T23:06:38.518Z,98372.27
2024-03-28T23:09:10.677Z,98380.17
2024-03-28T23:11:42.011Z,98382.27
2024-03-28T23:14:13.619Z,98385.80
2024-03-28T23:16:44.674Z,98397.21
2024-03-28T23:19:16.178Z,98402.59
2024-03-28T23:21:48.160Z,98405.91
2024-03-28T23:24:19.467Z,98407.88
2024-03-28T23:26:51.299Z,98418.09
2024-03-28T23:29:23.383Z,98425.39
2024-03-28T23:31:54.716Z,98435.39
2024-03-28T23:34:26.222Z,98436.50
2024-03-28T23:36:59.047Z,98441.18
2024-03-28T23:39:31.376Z,98449.16
2024-03-28T23:42:02.576Z,98449.86
2024-03-28T23:44:34.069Z,98457.07
2024-03-28T23:47:05.297Z,98459.67
2024-03-28T23:49:36.580Z,98468.25
2024-03-28T23:52:08.976Z,98476.11
2024-03-28T23:54:40.516Z,98481.83
2024-03-28T23:57:11.691Z,98491.36
2024-03-28T23:59:42.839Z,98495.19
